Terminal Aerodrome Forecast
Issued by NWS Quad Cities IA IL

Home | Current Version | Previous Version | Text Only | Print | Product List | Glossary On
Versions: 1 2 3 4 5 6 7 8 9 10 11 12 13 14 15 16 17 18 19
373
FTUS43 KDVN 221834 AAA
TAFMLI
TAF AMD
KMLI 221834Z 2219/2318 34009KT P6SM OVC050
     FM222100 35005KT P6SM SKC
     FM230000 VRB03KT P6SM SKC
     FM231600 23005KT P6SM SKC=

USA.gov is the U.S. government's official web portal to all federal, state and local government web resources and services.